Time;durP1;ratioP1;P1;durP2;ratioP2;P2;SDS_P1;SDS_P2;PMS_P1;PMS_P2;Temp;Humidity;BMP_temperature;BMP_pressure;BME280_temperature;BME280_humidity;BME280_pressure;Samples;Min_cycle;Max_cycle;Signal;HPM_P1;HPM_P2
2023/02/08 00:01:24;;;;;;;16.07;7.87;;;;;;;;;;4942642;29;20038;-79
2023/02/08 00:03:50;;;;;;;18.25;8.48;;;;;;;;;;4963744;28;20963;-79
2023/02/08 00:06:16;;;;;;;17.80;8.43;;;;;;;;;;4963186;28;20027;-78
2023/02/08 00:08:45;;;;;;;18.70;8.50;;;;;;;;;;4960286;28;20027;-78
2023/02/08 00:11:11;;;;;;;17.10;8.20;;;;;;;;;;4963292;28;20486;-79
2023/02/08 00:13:37;;;;;;;18.73;8.60;;;;;;;;;;4961267;28;20065;-78
2023/02/08 00:16:03;;;;;;;15.13;8.05;;;;;;;;;;4948610;29;20122;-79
2023/02/08 00:18:28;;;;;;;18.65;8.57;;;;;;;;;;4949199;28;20058;-78
2023/02/08 00:20:56;;;;;;;19.50;8.80;;;;;;;;;;4964986;28;20026;-79
2023/02/08 00:23:22;;;;;;;18.58;8.57;;;;;;;;;;4966200;28;20035;-79
2023/02/08 00:25:48;;;;;;;21.33;8.52;;;;;;;;;;4967880;28;20086;-79
2023/02/08 00:28:15;;;;;;;21.63;8.15;;;;;;;;;;4962968;28;20102;-79
2023/02/08 00:30:41;;;;;;;15.75;7.65;;;;;;;;;;4963215;28;20046;-77
2023/02/08 00:33:07;;;;;;;15.82;7.60;;;;;;;;;;4948088;29;20034;-79
2023/02/08 00:35:33;;;;;;;16.30;8.43;;;;;;;;;;4967568;28;20027;-79
2023/02/08 00:37:58;;;;;;;15.32;7.93;;;;;;;;;;4964459;28;20023;-79
2023/02/08 00:40:26;;;;;;;18.13;7.78;;;;;;;;;;4967204;28;20035;-79
2023/02/08 00:42:52;;;;;;;19.42;8.00;;;;;;;;;;4961662;28;20034;-79
2023/02/08 00:45:18;;;;;;;17.52;7.70;;;;;;;;;;4965051;28;20116;-78
2023/02/08 00:47:43;;;;;;;18.00;8.18;;;;;;;;;;4967022;28;20034;-77
2023/02/08 00:50:14;;;;;;;21.98;9.10;;;;;;;;;;4964560;28;20108;-79
2023/02/08 00:52:39;;;;;;;16.42;7.65;;;;;;;;;;4963053;28;20106;-79
2023/02/08 00:55:06;;;;;;;20.27;8.43;;;;;;;;;;4964339;28;20309;-79
2023/02/08 00:57:32;;;;;;;13.43;7.32;;;;;;;;;;4965399;28;20031;-79
2023/02/08 00:59:59;;;;;;;16.98;7.63;;;;;;;;;;4966326;28;20038;-79
2023/02/08 01:02:26;;;;;;;18.48;7.85;;;;;;;;;;4944099;28;20734;-79
2023/02/08 01:04:53;;;;;;;21.38;9.13;;;;;;;;;;4963801;28;20031;-78
2023/02/08 01:07:19;;;;;;;18.25;7.90;;;;;;;;;;4956496;28;20451;-79
2023/02/08 01:09:44;;;;;;;17.88;7.40;;;;;;;;;;4962223;28;20030;-78
2023/02/08 01:12:10;;;;;;;18.30;7.45;;;;;;;;;;4944741;28;20023;-79
2023/02/08 01:14:39;;;;;;;21.27;7.55;;;;;;;;;;4962492;28;20024;-77
2023/02/08 01:17:04;;;;;;;18.63;8.13;;;;;;;;;;4963343;28;20027;-78
2023/02/08 01:19:30;;;;;;;17.45;7.03;;;;;;;;;;4969407;28;20035;-78
2023/02/08 01:21:55;;;;;;;17.65;7.13;;;;;;;;;;4966820;28;20031;-78
2023/02/08 01:24:21;;;;;;;14.93;7.85;;;;;;;;;;4963870;28;20090;-77
2023/02/08 01:26:46;;;;;;;18.55;7.70;;;;;;;;;;4963993;28;20023;-79
2023/02/08 01:29:12;;;;;;;16.90;7.80;;;;;;;;;;4960120;28;20027;-78
2023/02/08 01:31:40;;;;;;;14.98;7.03;;;;;;;;;;4961706;28;20050;-78
2023/02/08 01:34:08;;;;;;;16.05;7.45;;;;;;;;;;4959310;28;20031;-77
2023/02/08 01:36:35;;;;;;;18.25;7.95;;;;;;;;;;4963148;28;20458;-76
2023/02/08 01:39:02;;;;;;;14.93;6.97;;;;;;;;;;4962201;28;20024;-78
2023/02/08 01:41:43;;;;;;;17.90;7.63;;;;;;;;;;4962991;28;20446;-76
2023/02/08 01:44:12;;;;;;;17.48;7.43;;;;;;;;;;4957697;28;20055;-78
2023/02/08 01:46:42;;;;;;;18.05;6.93;;;;;;;;;;4963738;28;20062;-77
2023/02/08 01:49:12;;;;;;;21.40;8.57;;;;;;;;;;4968800;28;20091;-77
2023/02/08 01:51:46;;;;;;;16.10;8.00;;;;;;;;;;4968766;28;20046;-77
2023/02/08 01:54:14;;;;;;;16.95;7.55;;;;;;;;;;4967992;28;20031;-76
2023/02/08 01:56:44;;;;;;;18.55;8.18;;;;;;;;;;4973750;28;20022;-77
2023/02/08 01:59:16;;;;;;;19.23;8.07;;;;;;;;;;4958022;29;20026;-76
2023/02/08 02:01:44;;;;;;;15.85;7.80;;;;;;;;;;4969313;28;20275;-77
2023/02/08 02:04:10;;;;;;;16.73;7.78;;;;;;;;;;4964085;28;20087;-78
2023/02/08 02:06:40;;;;;;;18.85;8.05;;;;;;;;;;4963056;28;20054;-79
2023/02/08 02:09:23;;;;;;;20.02;8.93;;;;;;;;;;4942202;28;20023;-78
2023/02/08 02:11:50;;;;;;;23.08;9.98;;;;;;;;;;4959457;28;20027;-79
2023/02/08 02:14:16;;;;;;;20.48;8.50;;;;;;;;;;4958886;28;20034;-78
2023/02/08 02:16:42;;;;;;;22.58;8.68;;;;;;;;;;4953810;28;20035;-78
2023/02/08 02:19:19;;;;;;;23.15;9.57;;;;;;;;;;4951091;28;20498;-79
2023/02/08 02:21:51;;;;;;;22.33;9.50;;;;;;;;;;4956634;28;20137;-77
2023/02/08 02:24:37;;;;;;;21.20;10.02;;;;;;;;;;4959378;28;20537;-78
2023/02/08 02:27:25;;;;;;;18.65;9.27;;;;;;;;;;4960053;28;20063;-78
2023/02/08 02:29:59;;;;;;;20.98;8.80;;;;;;;;;;4958571;28;20035;-78
2023/02/08 02:32:44;;;;;;;19.50;8.98;;;;;;;;;;4956408;28;20106;-75
2023/02/08 02:35:26;;;;;;;19.30;8.10;;;;;;;;;;4957210;28;20027;-78
2023/02/08 02:38:06;;;;;;;17.70;7.97;;;;;;;;;;4958365;28;20031;-78
2023/02/08 02:40:58;;;;;;;17.85;8.52;;;;;;;;;;4959342;28;20031;-77
2023/02/08 02:43:40;;;;;;;20.00;8.82;;;;;;;;;;4963646;28;20071;-78
2023/02/08 02:46:34;;;;;;;20.23;8.75;;;;;;;;;;4965499;28;20039;-76
2023/02/08 02:49:15;;;;;;;20.02;8.20;;;;;;;;;;4960050;28;20024;-76
2023/02/08 02:51:47;;;;;;;18.90;8.35;;;;;;;;;;4959670;28;20023;-79
2023/02/08 02:54:20;;;;;;;15.65;8.02;;;;;;;;;;4960160;28;20049;-77
2023/02/08 02:56:54;;;;;;;23.58;8.95;;;;;;;;;;4941367;29;20019;-77
2023/02/08 02:59:21;;;;;;;21.00;8.63;;;;;;;;;;4963604;28;20023;-78
2023/02/08 03:01:47;;;;;;;22.50;8.60;;;;;;;;;;4971853;28;20027;-75
2023/02/08 03:10:55;;;;;;;18.63;8.57;;;;;;;;;;4975895;28;20069;-79
2023/02/08 03:13:41;;;;;;;20.42;8.73;;;;;;;;;;4962171;28;20024;-79
2023/02/08 03:16:25;;;;;;;19.52;8.80;;;;;;;;;;4944770;29;20027;-77
2023/02/08 03:19:21;;;;;;;20.63;8.52;;;;;;;;;;4971377;28;20027;-79
2023/02/08 03:21:58;;;;;;;21.67;9.05;;;;;;;;;;4963536;28;20023;-76
2023/02/08 03:24:29;;;;;;;20.23;9.60;;;;;;;;;;4964146;28;20031;-79
2023/02/08 03:27:19;;;;;;;20.65;10.30;;;;;;;;;;4946627;29;20419;-77
2023/02/08 03:29:58;;;;;;;21.60;10.45;;;;;;;;;;4961805;28;20507;-79
2023/02/08 03:32:40;;;;;;;20.33;9.52;;;;;;;;;;4963624;28;20043;-78
2023/02/08 03:35:12;;;;;;;21.05;9.68;;;;;;;;;;4958943;28;20445;-79
2023/02/08 03:37:54;;;;;;;19.08;9.35;;;;;;;;;;4961625;28;20027;-79
2023/02/08 03:40:30;;;;;;;24.10;9.88;;;;;;;;;;4966260;28;20037;-77
2023/02/08 03:43:00;;;;;;;17.58;8.40;;;;;;;;;;4964153;28;20038;-79
2023/02/08 03:45:51;;;;;;;;;;;;;;;;;;4961024;28;20106;-77
2023/02/08 03:48:19;;;;;;;21.83;8.98;;;;;;;;;;4966563;28;19925;-79
2023/02/08 03:50:48;;;;;;;23.15;9.55;;;;;;;;;;4943889;28;20548;-79
2023/02/08 03:53:17;;;;;;;18.58;8.65;;;;;;;;;;4948583;28;20126;-76
2023/02/08 03:55:46;;;;;;;21.67;9.43;;;;;;;;;;4966160;28;20031;-78
2023/02/08 03:58:22;;;;;;;18.33;7.85;;;;;;;;;;4961938;28;20151;-77
2023/02/08 04:00:53;;;;;;;17.85;8.20;;;;;;;;;;4958737;28;20036;-77
2023/02/08 04:03:23;;;;;;;17.60;8.13;;;;;;;;;;4962260;28;20023;-77
2023/02/08 04:05:48;;;;;;;15.77;7.80;;;;;;;;;;4958981;28;20091;-78
2023/02/08 04:08:14;;;;;;;18.63;7.85;;;;;;;;;;4961632;28;20965;-78
2023/02/08 04:10:42;;;;;;;20.92;8.90;;;;;;;;;;4965812;28;20032;-78
2023/02/08 04:13:09;;;;;;;19.55;8.68;;;;;;;;;;4970141;28;20022;-76
2023/02/08 04:15:35;;;;;;;17.92;8.30;;;;;;;;;;4964964;28;20031;-79
2023/02/08 04:18:00;;;;;;;19.98;9.10;;;;;;;;;;4962115;28;20027;-78
2023/02/08 04:20:28;;;;;;;23.88;9.80;;;;;;;;;;4973730;28;20023;-77
2023/02/08 04:22:55;;;;;;;19.60;9.60;;;;;;;;;;4959540;28;20080;-79
2023/02/08 04:25:23;;;;;;;62.60;20.20;;;;;;;;;;4971616;28;20059;-77
2023/02/08 04:27:49;;;;;;;56.15;16.15;;;;;;;;;;4971351;28;20393;-78
2023/02/08 04:30:14;;;;;;;25.63;10.60;;;;;;;;;;4963074;28;20062;-78
2023/02/08 04:32:42;;;;;;;28.05;11.30;;;;;;;;;;4964853;28;20027;-77
2023/02/08 04:35:07;;;;;;;28.83;10.82;;;;;;;;;;4968445;28;20022;-76
2023/02/08 04:37:33;;;;;;;28.35;10.60;;;;;;;;;;4954219;28;20110;-76
2023/02/08 04:39:58;;;;;;;33.42;12.73;;;;;;;;;;4966775;28;20028;-77
2023/02/08 04:42:24;;;;;;;22.40;10.63;;;;;;;;;;4977025;28;20041;-76
2023/02/08 04:44:49;;;;;;;28.02;10.90;;;;;;;;;;4960793;28;20031;-78
2023/02/08 04:47:15;;;;;;;26.92;11.02;;;;;;;;;;4969197;28;20089;-78
2023/02/08 04:49:40;;;;;;;24.13;9.35;;;;;;;;;;4969173;28;20385;-78
2023/02/08 04:52:06;;;;;;;24.90;10.30;;;;;;;;;;4954612;28;20023;-79
2023/02/08 04:54:31;;;;;;;30.27;10.63;;;;;;;;;;4947093;28;20031;-78
2023/02/08 04:56:56;;;;;;;31.92;12.48;;;;;;;;;;4952026;29;20034;-77
2023/02/08 04:59:22;;;;;;;84.03;28.48;;;;;;;;;;4960601;28;20039;-77
2023/02/08 05:01:47;;;;;;;75.13;26.13;;;;;;;;;;4970567;28;20055;-77
2023/02/08 05:04:13;;;;;;;57.88;21.42;;;;;;;;;;4946498;28;20115;-77
2023/02/08 05:06:40;;;;;;;56.13;21.45;;;;;;;;;;4956737;28;20031;-77
2023/02/08 05:09:09;;;;;;;60.53;21.42;;;;;;;;;;4963505;28;20035;-76
2023/02/08 05:11:35;;;;;;;51.42;17.80;;;;;;;;;;4962045;28;20046;-77
2023/02/08 05:14:01;;;;;;;32.65;12.20;;;;;;;;;;4959968;29;20027;-77
2023/02/08 05:16:27;;;;;;;33.47;12.27;;;;;;;;;;4941236;28;20102;-76
2023/02/08 05:18:55;;;;;;;52.25;17.77;;;;;;;;;;4956961;28;20027;-76
2023/02/08 05:21:22;;;;;;;68.90;21.73;;;;;;;;;;4956670;28;20027;-77
2023/02/08 05:23:48;;;;;;;74.60;23.88;;;;;;;;;;4957996;28;20073;-77
2023/02/08 05:26:14;;;;;;;43.47;16.50;;;;;;;;;;4959081;28;20387;-78
2023/02/08 05:28:42;;;;;;;34.70;13.98;;;;;;;;;;4959303;28;20019;-77
2023/02/08 05:31:13;;;;;;;32.33;13.70;;;;;;;;;;4972440;28;20047;-78
2023/02/08 05:33:44;;;;;;;31.50;13.60;;;;;;;;;;4963326;28;20034;-81
2023/02/08 05:36:11;;;;;;;47.80;17.73;;;;;;;;;;4957884;28;20042;-77
2023/02/08 05:38:45;;;;;;;40.80;16.08;;;;;;;;;;4959121;28;20538;-78
2023/02/08 05:41:11;;;;;;;39.45;16.73;;;;;;;;;;4960059;28;20031;-79
2023/02/08 05:43:36;;;;;;;43.78;17.20;;;;;;;;;;4962363;28;20119;-78
2023/02/08 05:46:02;;;;;;;45.78;16.83;;;;;;;;;;4960483;28;20023;-79
2023/02/08 05:48:29;;;;;;;53.08;21.30;;;;;;;;;;4949461;28;20502;-78
2023/02/08 05:50:55;;;;;;;51.05;21.10;;;;;;;;;;4968141;28;20382;-78
2023/02/08 05:53:21;;;;;;;51.30;20.90;;;;;;;;;;4949870;28;20508;-79
2023/02/08 05:55:48;;;;;;;45.35;19.85;;;;;;;;;;4964979;28;20106;-78
2023/02/08 05:58:15;;;;;;;49.85;17.77;;;;;;;;;;4963845;28;20027;-78
2023/02/08 06:00:40;;;;;;;37.92;14.63;;;;;;;;;;4960301;28;20032;-79
2023/02/08 06:03:06;;;;;;;44.38;16.23;;;;;;;;;;4967551;28;20097;-79
2023/02/08 06:05:31;;;;;;;39.78;18.55;;;;;;;;;;4948735;28;20033;-80
2023/02/08 06:07:57;;;;;;;39.28;15.57;;;;;;;;;;4967377;28;20034;-79
2023/02/08 06:10:22;;;;;;;37.97;16.25;;;;;;;;;;4949792;28;20027;-77
2023/02/08 06:12:48;;;;;;;45.60;15.60;;;;;;;;;;4958251;28;20054;-78
2023/02/08 06:15:18;;;;;;;33.25;12.82;;;;;;;;;;4964123;28;20480;-79
2023/02/08 06:17:43;;;;;;;32.53;13.35;;;;;;;;;;4965880;28;20050;-79
2023/02/08 06:20:11;;;;;;;33.35;14.70;;;;;;;;;;4947904;29;20030;-77
2023/02/08 06:22:39;;;;;;;39.97;16.50;;;;;;;;;;4967869;28;20497;-77
2023/02/08 06:25:04;;;;;;;53.50;19.10;;;;;;;;;;4943359;29;20043;-77
2023/02/08 06:27:30;;;;;;;45.88;16.45;;;;;;;;;;4963059;28;20022;-78
2023/02/08 06:29:55;;;;;;;43.38;17.58;;;;;;;;;;4958687;28;20027;-78
2023/02/08 06:32:20;;;;;;;52.42;20.15;;;;;;;;;;4944223;28;20031;-76
2023/02/08 06:34:49;;;;;;;69.88;24.60;;;;;;;;;;4961851;28;20023;-80
2023/02/08 06:37:15;;;;;;;56.20;20.50;;;;;;;;;;4958708;28;20051;-78
2023/02/08 06:39:40;;;;;;;62.08;20.95;;;;;;;;;;4961995;28;20027;-79
2023/02/08 06:42:05;;;;;;;50.22;17.27;;;;;;;;;;4969798;28;20029;-79
2023/02/08 06:44:31;;;;;;;42.33;16.48;;;;;;;;;;4962874;28;20038;-77
2023/02/08 06:46:56;;;;;;;45.63;16.77;;;;;;;;;;4969323;28;20019;-79
2023/02/08 06:49:22;;;;;;;45.53;17.73;;;;;;;;;;4953266;28;20031;-79
2023/02/08 06:51:47;;;;;;;48.67;17.67;;;;;;;;;;4953928;28;20022;-79
2023/02/08 06:54:14;;;;;;;44.53;17.45;;;;;;;;;;4971233;28;20058;-79
2023/02/08 06:56:39;;;;;;;33.30;13.82;;;;;;;;;;4965550;28;20074;-77
2023/02/08 06:59:05;;;;;;;40.38;15.38;;;;;;;;;;4967066;28;20023;-80
2023/02/08 07:01:31;;;;;;;39.88;15.63;;;;;;;;;;4967130;28;20171;-78
2023/02/08 07:03:56;;;;;;;29.73;13.25;;;;;;;;;;4966631;28;20113;-78
2023/02/08 07:06:21;;;;;;;30.88;13.05;;;;;;;;;;4957930;28;20062;-78
2023/02/08 07:08:49;;;;;;;32.90;13.73;;;;;;;;;;4957320;28;20029;-79
2023/02/08 07:11:18;;;;;;;30.75;13.48;;;;;;;;;;4952892;29;20121;-79
2023/02/08 07:13:54;;;;;;;39.53;14.97;;;;;;;;;;4964093;28;20512;-78
2023/02/08 07:16:20;;;;;;;38.83;16.10;;;;;;;;;;4958218;28;20033;-79
2023/02/08 07:18:45;;;;;;;40.85;15.80;;;;;;;;;;4970227;28;20018;-79
2023/02/08 07:21:11;;;;;;;38.03;14.27;;;;;;;;;;4967358;28;20038;-78
2023/02/08 07:23:39;;;;;;;38.30;13.63;;;;;;;;;;4970690;28;20030;-79
2023/02/08 07:26:11;;;;;;;36.10;14.02;;;;;;;;;;4952702;28;20018;-79
2023/02/08 07:28:37;;;;;;;38.40;13.45;;;;;;;;;;4965875;28;20078;-77
2023/02/08 07:31:07;;;;;;;37.25;14.30;;;;;;;;;;4964936;28;20019;-77
2023/02/08 07:33:33;;;;;;;40.35;15.10;;;;;;;;;;4964852;28;20134;-78
2023/02/08 07:36:02;;;;;;;59.83;19.83;;;;;;;;;;4970123;28;20069;-79
2023/02/08 07:38:27;;;;;;;38.17;13.32;;;;;;;;;;4950121;28;20023;-79
2023/02/08 07:41:04;;;;;;;37.28;13.88;;;;;;;;;;4968681;28;20030;-78
2023/02/08 07:43:29;;;;;;;41.30;15.93;;;;;;;;;;4954434;28;20169;-77
2023/02/08 07:45:55;;;;;;;36.85;14.65;;;;;;;;;;4968341;28;20503;-77
2023/02/08 07:48:20;;;;;;;39.78;15.43;;;;;;;;;;4967998;28;20027;-79
2023/02/08 07:50:45;;;;;;;40.17;15.27;;;;;;;;;;4951560;28;20502;-78
2023/02/08 07:53:13;;;;;;;34.25;14.02;;;;;;;;;;4969899;28;20023;-78
2023/02/08 07:55:39;;;;;;;34.38;13.75;;;;;;;;;;4967852;28;20015;-79
2023/02/08 07:58:04;;;;;;;36.00;14.38;;;;;;;;;;4950703;29;20050;-79
2023/02/08 08:00:30;;;;;;;40.58;14.65;;;;;;;;;;4969664;28;20433;-78
2023/02/08 08:02:55;;;;;;;43.05;17.17;;;;;;;;;;4971661;28;20077;-78
2023/02/08 08:05:21;;;;;;;44.90;15.60;;;;;;;;;;4956262;28;20332;-79
2023/02/08 08:07:47;;;;;;;44.80;16.83;;;;;;;;;;4972889;28;20019;-79
2023/02/08 08:10:12;;;;;;;57.28;19.38;;;;;;;;;;4963234;28;20509;-78
2023/02/08 08:12:37;;;;;;;50.80;19.02;;;;;;;;;;4944728;29;20035;-77
2023/02/08 08:15:06;;;;;;;48.08;17.58;;;;;;;;;;4965589;28;20028;-79
2023/02/08 08:17:31;;;;;;;42.50;16.65;;;;;;;;;;4968224;28;20035;-78
2023/02/08 08:19:57;;;;;;;55.75;18.20;;;;;;;;;;4966527;28;20557;-79
2023/02/08 08:22:22;;;;;;;50.35;17.83;;;;;;;;;;4966828;28;20078;-78
2023/02/08 08:24:48;;;;;;;60.05;20.63;;;;;;;;;;4950312;28;20019;-78
2023/02/08 08:27:13;;;;;;;49.88;18.08;;;;;;;;;;4963489;28;20043;-78
2023/02/08 08:29:38;;;;;;;50.75;19.15;;;;;;;;;;4964004;28;20474;-76
2023/02/08 08:32:06;;;;;;;48.72;18.52;;;;;;;;;;4957975;28;20023;-79
2023/02/08 08:34:33;;;;;;;53.30;19.27;;;;;;;;;;4963467;28;20031;-77
2023/02/08 08:37:01;;;;;;;53.47;19.30;;;;;;;;;;4967214;28;20034;-77
2023/02/08 08:39:27;;;;;;;59.03;19.55;;;;;;;;;;4968681;28;20023;-76
2023/02/08 08:41:56;;;;;;;77.25;27.75;;;;;;;;;;4948588;28;20034;-78
2023/02/08 08:44:24;;;;;;;82.95;27.00;;;;;;;;;;4965281;28;20081;-78
2023/02/08 08:46:52;;;;;;;60.35;20.95;;;;;;;;;;4962069;28;20031;-77
2023/02/08 08:49:18;;;;;;;63.10;21.10;;;;;;;;;;4962643;28;20493;-78
2023/02/08 08:51:50;;;;;;;72.03;25.30;;;;;;;;;;4952961;28;20035;-79
2023/02/08 08:54:16;;;;;;;71.22;20.80;;;;;;;;;;4959614;28;20038;-79
2023/02/08 08:56:41;;;;;;;55.67;21.15;;;;;;;;;;4945552;29;20027;-79
2023/02/08 08:59:06;;;;;;;56.65;19.05;;;;;;;;;;4954344;28;20566;-79
2023/02/08 09:01:32;;;;;;;54.10;19.33;;;;;;;;;;4969312;28;20122;-78
2023/02/08 09:04:00;;;;;;;48.63;18.33;;;;;;;;;;4973424;28;20128;-77
2023/02/08 09:06:25;;;;;;;45.90;17.33;;;;;;;;;;4969903;28;20038;-77
2023/02/08 09:08:51;;;;;;;45.67;18.88;;;;;;;;;;4952684;28;20015;-78
2023/02/08 09:11:16;;;;;;;54.13;17.98;;;;;;;;;;4966463;28;20066;-77
2023/02/08 09:13:42;;;;;;;49.95;17.98;;;;;;;;;;4956782;28;20074;-77
2023/02/08 09:16:14;;;;;;;51.58;18.27;;;;;;;;;;4963614;28;20019;-78
2023/02/08 09:18:40;;;;;;;48.67;17.23;;;;;;;;;;4961184;28;20344;-78
2023/02/08 09:21:12;;;;;;;46.20;16.55;;;;;;;;;;4962711;28;20066;-79
2023/02/08 09:23:37;;;;;;;48.75;17.55;;;;;;;;;;4966835;28;20501;-79
2023/02/08 09:26:12;;;;;;;42.78;15.85;;;;;;;;;;4948537;28;20027;-78
2023/02/08 09:28:38;;;;;;;47.22;16.52;;;;;;;;;;4962809;28;20023;-76
2023/02/08 09:31:29;;;;;;;44.20;15.85;;;;;;;;;;4962053;28;20066;-79
2023/02/08 09:33:57;;;;;;;45.92;15.18;;;;;;;;;;4959888;28;20022;-78
2023/02/08 09:36:25;;;;;;;43.92;16.40;;;;;;;;;;4949919;28;20050;-78
2023/02/08 09:38:59;;;;;;;39.72;15.73;;;;;;;;;;4969678;28;20121;-78
2023/02/08 09:41:46;;;;;;;27.10;10.73;;;;;;;;;;4968115;28;20050;-79
2023/02/08 09:44:36;;;;;;;38.13;13.85;;;;;;;;;;4963752;28;20019;-79
2023/02/08 09:47:17;;;;;;;42.90;14.75;;;;;;;;;;4951846;28;20437;-78
2023/02/08 09:49:54;;;;;;;45.92;14.57;;;;;;;;;;4951876;29;20367;-79
2023/02/08 09:52:25;;;;;;;34.80;12.82;;;;;;;;;;4967289;28;20050;-79
2023/02/08 09:54:55;;;;;;;39.55;12.40;;;;;;;;;;4969847;28;20432;-77
2023/02/08 09:57:23;;;;;;;;;;;;;;;;;;4969715;28;20023;-78
2023/02/08 10:00:17;;;;;;;28.38;11.60;;;;;;;;;;4952737;28;20373;-76
2023/02/08 10:02:46;;;;;;;33.08;12.85;;;;;;;;;;4958645;28;20390;-78
2023/02/08 10:05:19;;;;;;;37.10;13.57;;;;;;;;;;4955146;28;20501;-76
2023/02/08 10:07:44;;;;;;;26.75;11.10;;;;;;;;;;4966037;28;20054;-79
2023/02/08 10:10:18;;;;;;;29.17;10.70;;;;;;;;;;4968182;28;20023;-78
2023/02/08 10:13:18;;;;;;;31.20;11.23;;;;;;;;;;4958974;28;20178;-78
2023/02/08 10:15:52;;;;;;;26.38;9.98;;;;;;;;;;4936021;28;20505;-78
2023/02/08 10:18:37;;;;;;;28.95;10.27;;;;;;;;;;4966659;28;20038;-79
2023/02/08 10:21:28;;;;;;;25.25;9.60;;;;;;;;;;4968464;28;20026;-79
2023/02/08 10:24:06;;;;;;;27.70;10.10;;;;;;;;;;4957156;28;20034;-77
2023/02/08 10:26:58;;;;;;;24.30;9.77;;;;;;;;;;4943490;28;20506;-79
2023/02/08 10:29:42;;;;;;;24.25;9.90;;;;;;;;;;4962832;28;20467;-74
2023/02/08 10:32:45;;;;;;;25.92;10.23;;;;;;;;;;4951411;28;20093;-80
2023/02/08 10:35:13;;;;;;;25.80;10.63;;;;;;;;;;4961271;28;20023;-77
2023/02/08 10:37:41;;;;;;;26.45;9.88;;;;;;;;;;4967415;28;20022;-76
2023/02/08 10:40:25;;;;;;;21.70;8.63;;;;;;;;;;4958654;28;20078;-78
2023/02/08 10:42:59;;;;;;;22.70;9.32;;;;;;;;;;4961316;28;20496;-76
2023/02/08 10:45:46;;;;;;;21.15;9.30;;;;;;;;;;4962105;28;20027;-78
2023/02/08 10:48:19;;;;;;;25.05;8.70;;;;;;;;;;4969406;28;20030;-80
2023/02/08 10:50:46;;;;;;;21.42;8.23;;;;;;;;;;4963819;28;20113;-79
2023/02/08 10:53:15;;;;;;;22.00;7.78;;;;;;;;;;4965333;28;20038;-80
2023/02/08 10:55:43;;;;;;;21.25;7.47;;;;;;;;;;4969357;23;20043;-62
2023/02/08 10:58:15;;;;;;;18.50;7.75;;;;;;;;;;4953864;28;20050;-62
2023/02/08 11:00:42;;;;;;;19.98;8.13;;;;;;;;;;4969461;28;20023;-62
2023/02/08 11:03:21;;;;;;;16.75;7.20;;;;;;;;;;4970861;28;20073;-63
2023/02/08 11:05:46;;;;;;;18.70;7.68;;;;;;;;;;4967679;28;20023;-62
2023/02/08 11:08:14;;;;;;;18.05;6.88;;;;;;;;;;4969248;28;20465;-63
2023/02/08 11:10:53;;;;;;;19.27;7.82;;;;;;;;;;4970364;28;20035;-63
2023/02/08 11:13:19;;;;;;;15.68;7.18;;;;;;;;;;4964226;28;20027;-62
2023/02/08 11:15:52;;;;;;;20.83;7.10;;;;;;;;;;4965863;28;20023;-62
2023/02/08 11:18:20;;;;;;;18.40;7.30;;;;;;;;;;4968798;28;20511;-63
2023/02/08 11:20:49;;;;;;;17.23;6.88;;;;;;;;;;4970380;28;20031;-62
2023/02/08 11:23:28;;;;;;;14.50;6.47;;;;;;;;;;4970029;28;20037;-62
2023/02/08 11:26:11;;;;;;;21.20;8.85;;;;;;;;;;4973861;28;20692;-62
2023/02/08 11:28:36;;;;;;;21.65;10.00;;;;;;;;;;4977183;28;20022;-63
2023/02/08 11:31:15;;;;;;;21.60;9.63;;;;;;;;;;4983592;28;20018;-61
2023/02/08 11:33:56;;;;;;;18.67;8.50;;;;;;;;;;4973215;28;20030;-62
2023/02/08 11:36:22;;;;;;;19.33;9.02;;;;;;;;;;4974358;28;20051;-62
2023/02/08 11:38:47;;;;;;;21.60;8.77;;;;;;;;;;4974471;28;20121;-63
2023/02/08 11:41:17;;;;;;;17.60;8.07;;;;;;;;;;4974068;28;20029;-63
2023/02/08 11:44:00;;;;;;;21.83;8.82;;;;;;;;;;4954174;28;20026;-63
2023/02/08 11:46:28;;;;;;;17.27;8.20;;;;;;;;;;4973991;28;20085;-62
2023/02/08 11:48:54;;;;;;;17.13;8.30;;;;;;;;;;4974093;28;20477;-63
2023/02/08 11:51:36;;;;;;;24.80;9.18;;;;;;;;;;4973884;28;20480;-63
2023/02/08 11:54:04;;;;;;;18.65;9.05;;;;;;;;;;4970538;28;20027;-62
2023/02/08 11:56:33;;;;;;;19.05;8.52;;;;;;;;;;4954744;28;20027;-62
2023/02/08 11:59:16;;;;;;;19.52;9.75;;;;;;;;;;4973714;28;20062;-63
2023/02/08 12:01:42;;;;;;;21.40;9.90;;;;;;;;;;4973951;28;20018;-63
2023/02/08 12:04:14;;;;;;;15.93;8.13;;;;;;;;;;4972723;28;20077;-62
2023/02/08 12:06:58;;;;;;;21.23;10.43;;;;;;;;;;4973576;28;20031;-63
2023/02/08 12:10:02;;;;;;;22.27;9.85;;;;;;;;;;4973915;28;20061;-62
2023/02/08 12:12:56;;;;;;;20.60;9.45;;;;;;;;;;4970962;28;20041;-63
2023/02/08 12:15:27;;;;;;;20.27;9.10;;;;;;;;;;4972814;28;20436;-63
2023/02/08 12:18:08;;;;;;;20.73;10.07;;;;;;;;;;4975292;28;20027;-63
2023/02/08 12:20:42;;;;;;;21.83;9.43;;;;;;;;;;4973456;28;20582;-63
2023/02/08 12:23:26;;;;;;;19.65;9.63;;;;;;;;;;4972999;28;20042;-63
2023/02/08 12:26:09;;;;;;;17.67;9.60;;;;;;;;;;4972975;28;20030;-63
2023/02/08 12:29:17;;;;;;;24.33;10.90;;;;;;;;;;4973510;28;20063;-63
2023/02/08 12:31:55;;;;;;;21.38;10.43;;;;;;;;;;4973060;28;20031;-62
2023/02/08 12:34:45;;;;;;;18.90;10.13;;;;;;;;;;4972371;28;20022;-62
2023/02/08 12:43:03;;;;;;;20.83;10.18;;;;;;;;;;4969396;28;20090;-64
2023/02/08 12:45:31;;;;;;;21.13;10.65;;;;;;;;;;4970451;28;20031;-63
2023/02/08 12:48:15;;;;;;;20.23;10.75;;;;;;;;;;4973105;28;20388;-64
2023/02/08 12:50:46;;;;;;;16.50;8.90;;;;;;;;;;4972805;28;20392;-63
2023/02/08 12:53:36;;;;;;;16.83;9.32;;;;;;;;;;4972572;28;20027;-65
2023/02/08 12:56:11;;;;;;;18.10;9.63;;;;;;;;;;4972880;28;20432;-64
2023/02/08 12:58:44;;;;;;;13.32;6.88;;;;;;;;;;4972829;28;20496;-61
2023/02/08 13:01:16;;;;;;;15.93;8.43;;;;;;;;;;4980326;28;20023;-65
2023/02/08 13:04:03;;;;;;;18.98;9.70;;;;;;;;;;4964908;28;20111;-63
2023/02/08 13:06:36;;;;;;;18.02;9.63;;;;;;;;;;4972721;28;20035;-64
2023/02/08 13:09:46;;;;;;;17.23;8.65;;;;;;;;;;4972864;28;20019;-64
2023/02/08 13:12:17;;;;;;;17.23;8.90;;;;;;;;;;4968839;28;20026;-64
2023/02/08 13:15:00;;;;;;;17.33;9.35;;;;;;;;;;4970019;28;20519;-64
2023/02/08 13:17:45;;;;;;;16.70;9.23;;;;;;;;;;4972555;28;20150;-64
2023/02/08 13:20:54;;;;;;;16.75;10.00;;;;;;;;;;4972348;28;20097;-64
2023/02/08 13:23:25;;;;;;;18.20;10.40;;;;;;;;;;4971294;28;20440;-64
2023/02/08 13:25:54;;;;;;;21.35;10.55;;;;;;;;;;4968257;28;20476;-64
2023/02/08 13:28:22;;;;;;;18.35;10.20;;;;;;;;;;4971265;28;20117;-65
2023/02/08 13:31:10;;;;;;;17.75;9.20;;;;;;;;;;4971826;28;20034;-65
2023/02/08 13:33:44;;;;;;;24.50;10.05;;;;;;;;;;4968059;28;20035;-65
2023/02/08 13:36:38;;;;;;;20.52;10.73;;;;;;;;;;4961851;28;20027;-65
2023/02/08 13:39:07;;;;;;;22.38;9.70;;;;;;;;;;4966474;28;20134;-65
2023/02/08 13:41:35;;;;;;;20.45;10.40;;;;;;;;;;4971704;28;20492;-65
2023/02/08 13:44:05;;;;;;;18.80;10.10;;;;;;;;;;4970931;28;20073;-67
2023/02/08 13:46:44;;;;;;;19.25;10.63;;;;;;;;;;4970229;28;20506;-65
2023/02/08 13:49:41;;;;;;;20.30;10.63;;;;;;;;;;4971777;28;20035;-65
2023/02/08 13:52:08;;;;;;;25.10;10.85;;;;;;;;;;4969665;28;20029;-65
2023/02/08 13:54:34;;;;;;;22.05;10.55;;;;;;;;;;4970745;28;20039;-64
2023/02/08 13:57:00;;;;;;;18.40;10.57;;;;;;;;;;4971540;28;20065;-65
2023/02/08 13:59:32;;;;;;;21.27;11.73;;;;;;;;;;4971543;28;20034;-63
2023/02/08 14:02:10;;;;;;;19.80;9.32;;;;;;;;;;4971186;28;20085;-63
2023/02/08 14:04:44;;;;;;;22.45;11.75;;;;;;;;;;4970637;28;20038;-68
2023/02/08 14:07:15;;;;;;;22.63;11.43;;;;;;;;;;4971510;28;20412;-68
2023/02/08 14:10:09;;;;;;;21.20;11.88;;;;;;;;;;4971368;28;20027;-68
2023/02/08 14:12:50;;;;;;;24.33;11.82;;;;;;;;;;4963003;28;20039;-67
2023/02/08 14:15:15;;;;;;;16.90;8.77;;;;;;;;;;4970723;28;20487;-62
2023/02/08 14:17:49;;;;;;;24.58;10.82;;;;;;;;;;4971360;28;20035;-61
2023/02/08 14:20:26;;;;;;;23.40;12.10;;;;;;;;;;4971450;28;20069;-62
2023/02/08 14:22:55;;;;;;;22.50;12.35;;;;;;;;;;4969680;28;20026;-67
2023/02/08 14:25:28;;;;;;;23.77;13.27;;;;;;;;;;4968625;28;20030;-66
2023/02/08 14:28:01;;;;;;;25.25;13.60;;;;;;;;;;4971312;28;20037;-68
2023/02/08 14:30:30;;;;;;;25.13;13.80;;;;;;;;;;4970986;28;20030;-67
2023/02/08 14:33:07;;;;;;;26.05;12.43;;;;;;;;;;4970536;28;20460;-66
2023/02/08 14:35:36;;;;;;;23.98;12.70;;;;;;;;;;4969818;28;20038;-68
2023/02/08 14:38:54;;;;;;;23.15;13.55;;;;;;;;;;4970014;28;20081;-67
2023/02/08 14:41:48;;;;;;;26.90;12.55;;;;;;;;;;4915880;28;20112;-67
2023/02/08 14:44:40;;;;;;;24.40;13.48;;;;;;;;;;4967336;28;20035;-67
2023/02/08 14:47:23;;;;;;;26.67;13.65;;;;;;;;;;4968621;28;20026;-67
2023/02/08 14:50:00;;;;;;;24.33;13.07;;;;;;;;;;4970992;28;20038;-67
2023/02/08 14:52:27;;;;;;;26.67;13.05;;;;;;;;;;4954291;28;20031;-66
2023/02/08 14:55:01;;;;;;;23.98;12.98;;;;;;;;;;4970070;28;20583;-66
2023/02/08 14:57:33;;;;;;;24.63;12.90;;;;;;;;;;4970617;28;20027;-67
2023/02/08 15:00:00;;;;;;;27.10;13.85;;;;;;;;;;4969851;28;20030;-67
2023/02/08 15:02:31;;;;;;;25.40;12.77;;;;;;;;;;4974433;28;20034;-67